createdAt,value
2023-05-02T00:00:34.045Z,8.769322
2023-05-02T00:01:34.017Z,8.769389
2023-05-02T00:02:34.080Z,8.769340
2023-05-02T00:03:34.072Z,8.769337
2023-05-02T00:04:34.134Z,8.769359
2023-05-02T00:05:34.041Z,8.769309
2023-05-02T00:06:34.044Z,8.769320
2023-05-02T00:07:33.985Z,8.769311
2023-05-02T00:08:33.991Z,8.769315
2023-05-02T00:09:33.988Z,8.769329
2023-05-02T00:10:34.023Z,8.769358
2023-05-02T00:11:33.949Z,8.769237
2023-05-02T00:12:33.986Z,8.769287
2023-05-02T00:13:33.942Z,8.769330
2023-05-02T00:14:33.937Z,8.769273
2023-05-02T00:15:33.934Z,8.769403
2023-05-02T00:16:34.059Z,8.769339
2023-05-02T00:17:34.005Z,8.769335
2023-05-02T00:18:33.958Z,8.769290
2023-05-02T00:19:33.915Z,8.769220
2023-05-02T00:20:33.939Z,8.769255
2023-05-02T00:21:33.904Z,8.769326
2023-05-02T00:22:33.904Z,8.769186
2023-05-02T00:23:33.895Z,8.769314
2023-05-02T00:24:33.946Z,8.769305
2023-05-02T00:25:33.902Z,8.769274
2023-05-02T00:26:33.883Z,8.769250
2023-05-02T00:27:33.859Z,8.769231
2023-05-02T00:28:33.886Z,8.769278
2023-05-02T00:29:33.841Z,8.769256
2023-05-02T00:30:33.856Z,8.769390
2023-05-02T00:31:33.933Z,8.769304
2023-05-02T00:32:33.838Z,8.769319
2023-05-02T00:33:33.807Z,8.769288
2023-05-02T00:34:33.857Z,8.769279
2023-05-02T00:35:33.803Z,8.769341
2023-05-02T00:36:33.793Z,8.769342
2023-05-02T00:37:33.776Z,8.769398
2023-05-02T00:38:33.758Z,8.769370
2023-05-02T00:39:33.758Z,8.769405
2023-05-02T00:40:34.202Z,8.769401
2023-05-02T00:41:33.808Z,8.769404
2023-05-02T00:42:33.816Z,8.769362
2023-05-02T00:43:33.729Z,8.769380
2023-05-02T00:44:33.741Z,8.769344
2023-05-02T00:45:33.746Z,8.769422
2023-05-02T00:46:33.772Z,8.769346
2023-05-02T00:47:33.767Z,8.769363
2023-05-02T00:49:29.532Z,8.769372
2023-05-02T00:49:34.710Z,8.769320
2023-05-02T00:50:33.695Z,8.769315
2023-05-02T00:51:33.689Z,8.769365
2023-05-02T00:52:33.741Z,8.769525
2023-05-02T00:53:33.646Z,8.769452
2023-05-02T00:54:33.645Z,8.769336
2023-05-02T00:55:33.634Z,8.769244
2023-05-02T00:56:33.648Z,8.769433
2023-05-02T00:57:33.736Z,8.769392
2023-05-02T00:58:33.686Z,8.769403
2023-05-02T00:59:33.630Z,8.769402
2023-05-02T01:00:33.613Z,8.769374
2023-05-02T01:01:33.603Z,8.769401
2023-05-02T01:02:33.713Z,8.769437
2023-05-02T01:03:33.701Z,8.769375
2023-05-02T01:04:33.616Z,8.769363
2023-05-02T01:05:33.563Z,8.769315
2023-05-02T01:06:33.612Z,8.769396
2023-05-02T01:07:33.556Z,8.769345
2023-05-02T01:08:33.572Z,8.769370
2023-05-02T01:09:33.555Z,8.769383
2023-05-02T01:10:33.564Z,8.769332
2023-05-02T01:11:33.570Z,8.769307
2023-05-02T01:12:33.507Z,8.769366
2023-05-02T01:13:33.505Z,8.769367
2023-05-02T01:14:33.500Z,8.769402
2023-05-02T01:15:33.488Z,8.769354
2023-05-02T01:16:33.529Z,8.769353
2023-05-02T01:17:33.557Z,8.769316
2023-05-02T01:18:33.459Z,8.769344
2023-05-02T01:19:33.469Z,8.769406
2023-05-02T01:20:33.450Z,8.769361
2023-05-02T01:21:33.472Z,8.769352
2023-05-02T01:22:33.528Z,8.769288
2023-05-02T01:23:33.424Z,8.769363
2023-05-02T01:24:33.415Z,8.769383
2023-05-02T01:25:33.429Z,8.769360
2023-05-02T01:26:33.445Z,8.769338
2023-05-02T01:27:33.394Z,8.769380
2023-05-02T01:28:33.503Z,8.769324
2023-05-02T01:29:33.418Z,8.769330
2023-05-02T01:30:33.377Z,8.769330
2023-05-02T01:31:33.439Z,8.769360
2023-05-02T01:32:33.476Z,8.769345
2023-05-02T01:33:33.373Z,8.769339
2023-05-02T01:34:33.402Z,8.769323
2023-05-02T01:35:33.384Z,8.769361
2023-05-02T01:36:33.365Z,8.769353
2023-05-02T01:37:33.322Z,8.769365
2023-05-02T01:38:33.336Z,8.769382
2023-05-02T01:39:33.336Z,8.769381
2023-05-02T01:40:33.785Z,8.769325
2023-05-02T01:41:33.299Z,8.769391
2023-05-02T01:42:33.290Z,8.769332
2023-05-02T01:43:33.277Z,8.769367
2023-05-02T01:44:33.267Z,8.769308
2023-05-02T01:45:33.257Z,8.769390
2023-05-02T01:46:33.373Z,8.769289
2023-05-02T01:47:33.285Z,8.769313
2023-05-02T01:48:33.253Z,8.769407
2023-05-02T01:49:33.244Z,8.769332
2023-05-02T01:50:33.234Z,8.769419
2023-05-02T01:51:33.225Z,8.769366
2023-05-02T01:52:33.262Z,8.769336
2023-05-02T01:53:33.196Z,8.769300
2023-05-02T01:54:33.207Z,8.769428
2023-05-02T01:55:33.197Z,8.769381
2023-05-02T01:56:33.207Z,8.769449
2023-05-02T01:57:33.185Z,8.769379
2023-05-02T01:58:33.210Z,8.769326
2023-05-02T01:59:33.150Z,8.769358
2023-05-02T02:00:33.139Z,8.769278
2023-05-02T02:01:33.197Z,8.769293
2023-05-02T02:02:33.132Z,8.769259
2023-05-02T02:03:33.196Z,8.769315
2023-05-02T02:04:33.259Z,8.769341
2023-05-02T02:05:33.099Z,8.769313
2023-05-02T02:06:33.197Z,8.769312
2023-05-02T02:07:33.089Z,8.769339
2023-05-02T02:08:33.104Z,8.769314
2023-05-02T02:09:33.109Z,8.769309
2023-05-02T02:10:33.131Z,8.769377
2023-05-02T02:11:33.069Z,8.769300
2023-05-02T02:12:33.073Z,8.769302
2023-05-02T02:13:33.036Z,8.769361
2023-05-02T02:14:33.030Z,8.769386
2023-05-02T02:15:33.067Z,8.769350
2023-05-02T02:16:33.131Z,8.769348
2023-05-02T02:17:33.056Z,8.769347
2023-05-02T02:18:44.728Z,8.769275
2023-05-02T02:19:34.037Z,8.769294
2023-05-02T02:20:33.021Z,8.769387
2023-05-02T02:21:33.038Z,8.769423
2023-05-02T02:22:33.059Z,8.769402
2023-05-02T02:23:32.986Z,8.769330
2023-05-02T02:24:32.965Z,8.769288
2023-05-02T02:25:33.105Z,8.769292
2023-05-02T02:26:32.959Z,8.769208
2023-05-02T02:27:32.964Z,8.769173
2023-05-02T02:28:32.984Z,8.769272
2023-05-02T02:29:32.933Z,8.769211
2023-05-02T02:30:32.977Z,8.769238
2023-05-02T02:31:33.015Z,8.769271
2023-05-02T02:32:32.977Z,8.769223
2023-05-02T02:33:32.929Z,8.769284
2023-05-02T02:34:32.942Z,8.769290
2023-05-02T02:35:32.925Z,8.769271
2023-05-02T02:36:32.897Z,8.769360
2023-05-02T02:37:32.906Z,8.769252
2023-05-02T02:38:32.865Z,8.769269
2023-05-02T02:39:32.856Z,8.769282
2023-05-02T02:40:32.905Z,8.769232
2023-05-02T02:41:32.871Z,8.769324
2023-05-02T02:42:32.871Z,8.769244
2023-05-02T02:43:32.848Z,8.769221
2023-05-02T02:44:32.840Z,8.769225
2023-05-02T02:45:32.837Z,8.769240
2023-05-02T02:46:33.288Z,8.769288
2023-05-02T02:47:32.848Z,8.769345
2023-05-02T02:48:32.817Z,8.769285
2023-05-02T02:49:32.806Z,8.769313
2023-05-02T02:50:32.770Z,8.769292
2023-05-02T02:51:32.784Z,8.769279
2023-05-02T02:52:32.852Z,8.769273
2023-05-02T02:53:32.796Z,8.769275
2023-05-02T02:54:32.748Z,8.769347
2023-05-02T02:55:32.751Z,8.769306
2023-05-02T02:56:32.717Z,8.769287
2023-05-02T02:57:32.751Z,8.769320
2023-05-02T02:58:32.756Z,8.769309
2023-05-02T02:59:32.722Z,8.769271
2023-05-02T03:00:32.682Z,8.769330
2023-05-02T03:01:32.762Z,8.769441
2023-05-02T03:02:32.807Z,8.769353
2023-05-02T03:03:32.717Z,8.769323
2023-05-02T03:04:32.706Z,8.769254
2023-05-02T03:05:32.660Z,8.769279
2023-05-02T03:06:32.699Z,8.769234
2023-05-02T03:07:32.706Z,8.769263
2023-05-02T03:08:32.654Z,8.769280
2023-05-02T03:09:32.647Z,8.769301
2023-05-02T03:10:32.651Z,8.769305
2023-05-02T03:11:32.632Z,8.769300
2023-05-02T03:12:32.652Z,8.769313
2023-05-02T03:13:32.635Z,8.769339
2023-05-02T03:14:32.580Z,8.769364
2023-05-02T03:15:32.587Z,8.769344
2023-05-02T03:16:32.749Z,8.769275
2023-05-02T03:17:32.629Z,8.769297
2023-05-02T03:18:32.567Z,8.769287
2023-05-02T03:19:32.546Z,8.769279
2023-05-02T03:20:32.614Z,8.769333
2023-05-02T03:21:32.568Z,8.769243
2023-05-02T03:22:32.604Z,8.769352
2023-05-02T03:23:32.538Z,8.769324
2023-05-02T03:24:32.531Z,8.769324
2023-05-02T03:25:32.520Z,8.769264
2023-05-02T03:26:32.530Z,8.769259
2023-05-02T03:27:32.510Z,8.769238
2023-05-02T03:28:32.555Z,8.769279
2023-05-02T03:29:32.499Z,8.769276
2023-05-02T03:30:32.497Z,8.769282
2023-05-02T03:31:32.668Z,8.769293
2023-05-02T03:32:32.531Z,8.769272
2023-05-02T03:33:32.484Z,8.769294
2023-05-02T03:34:32.502Z,8.769269
2023-05-02T03:35:32.467Z,8.769307
2023-05-02T03:36:32.447Z,8.769307
2023-05-02T03:37:32.435Z,8.769257
2023-05-02T03:38:32.426Z,8.769282
2023-05-02T03:39:32.421Z,8.769301
2023-05-02T03:40:32.449Z,8.769302
2023-05-02T03:41:32.409Z,8.769365
2023-05-02T03:42:32.388Z,8.769264
2023-05-02T03:43:32.399Z,8.769273
2023-05-02T03:44:32.376Z,8.769254
2023-05-02T03:45:32.557Z,8.769264
2023-05-02T03:46:32.458Z,8.769335
2023-05-02T03:47:32.422Z,8.769302
2023-05-02T03:48:32.382Z,8.769298
2023-05-02T03:49:32.345Z,8.769340
2023-05-02T03:50:32.354Z,8.769331
2023-05-02T03:51:32.336Z,8.769334
2023-05-02T03:52:32.657Z,8.769300
2023-05-02T03:53:32.318Z,8.769290
2023-05-02T03:54:32.310Z,8.769307
2023-05-02T03:55:32.308Z,8.769278
2023-05-02T03:56:32.303Z,8.769266
2023-05-02T03:57:32.296Z,8.769300
2023-05-02T03:58:32.328Z,8.769289
2023-05-02T03:59:32.310Z,8.769284
2023-05-02T04:00:32.359Z,8.769300
2023-05-02T04:01:32.254Z,8.769297
2023-05-02T04:02:32.373Z,8.769268
2023-05-02T04:03:32.316Z,8.769290
2023-05-02T04:04:32.389Z,8.769309
2023-05-02T04:05:32.214Z,8.769341
2023-05-02T04:06:32.314Z,8.769323
2023-05-02T04:07:32.237Z,8.769317
2023-05-02T04:08:32.209Z,8.769253
2023-05-02T04:09:32.189Z,8.769290
2023-05-02T04:10:32.261Z,8.769288
2023-05-02T04:11:32.179Z,8.769301
2023-05-02T04:12:32.176Z,8.769333
2023-05-02T04:13:32.179Z,8.769325
2023-05-02T04:14:32.153Z,8.769307
2023-05-02T04:15:32.169Z,8.769343
2023-05-02T04:16:32.212Z,8.769298
2023-05-02T04:17:32.149Z,8.769320
2023-05-02T04:18:32.121Z,8.769300
2023-05-02T04:19:32.136Z,8.769316
2023-05-02T04:20:32.124Z,8.769338
2023-05-02T04:21:32.091Z,8.769331
2023-05-02T04:22:32.152Z,8.769327
2023-05-02T04:23:32.108Z,8.769329
2023-05-02T04:24:32.096Z,8.769324
2023-05-02T04:25:32.067Z,8.769332
2023-05-02T04:26:32.082Z,8.769333
2023-05-02T04:27:32.065Z,8.769336
2023-05-02T04:28:32.109Z,8.769284
2023-05-02T04:29:32.073Z,8.769319
2023-05-02T04:30:32.067Z,8.769288
2023-05-02T04:31:32.121Z,8.769306
2023-05-02T04:32:32.058Z,8.769305
2023-05-02T04:33:32.040Z,8.769311
2023-05-02T04:34:32.042Z,8.769289
2023-05-02T04:35:32.128Z,8.769335
2023-05-02T04:36:32.021Z,8.769340
2023-05-02T04:37:31.997Z,8.769293
2023-05-02T04:38:31.976Z,8.769277
2023-05-02T04:39:31.997Z,8.769257
2023-05-02T04:40:32.018Z,8.769237
2023-05-02T04:41:31.954Z,8.769280
2023-05-02T04:42:31.943Z,8.769279
2023-05-02T04:43:31.933Z,8.769323
2023-05-02T04:44:31.933Z,8.769348
2023-05-02T04:45:31.922Z,8.769335
2023-05-02T04:46:32.065Z,8.769276
2023-05-02T04:47:31.954Z,8.769303
2023-05-02T04:48:31.916Z,8.769275
2023-05-02T04:49:31.905Z,8.769304
2023-05-02T04:50:31.899Z,8.769289
2023-05-02T04:51:31.879Z,8.769334
2023-05-02T04:52:31.935Z,8.769336
2023-05-02T04:53:31.877Z,8.769361
2023-05-02T04:54:31.861Z,8.769297
2023-05-02T04:55:31.857Z,8.769289
2023-05-02T04:56:31.845Z,8.769315
2023-05-02T04:57:31.860Z,8.769318
2023-05-02T04:58:32.334Z,8.769300
2023-05-02T04:59:31.829Z,8.769308
2023-05-02T05:00:31.851Z,8.769274
2023-05-02T05:01:31.809Z,8.769301
2023-05-02T05:02:31.907Z,8.769237
2023-05-02T05:03:31.838Z,8.769285
2023-05-02T05:04:31.811Z,8.769350
2023-05-02T05:05:31.860Z,8.769393
2023-05-02T05:06:31.829Z,8.769360
2023-05-02T05:07:31.762Z,8.769335
2023-05-02T05:08:31.750Z,8.769316
2023-05-02T05:09:31.746Z,8.769304
2023-05-02T05:10:31.803Z,8.769330
2023-05-02T05:11:31.753Z,8.769352
2023-05-02T05:12:31.727Z,8.769377
2023-05-02T05:13:31.746Z,8.769370
2023-05-02T05:14:31.737Z,8.769363
2023-05-02T05:15:31.709Z,8.769350
2023-05-02T05:16:31.796Z,8.769394
2023-05-02T05:17:31.724Z,8.769352
2023-05-02T05:18:31.706Z,8.769329
2023-05-02T05:19:31.690Z,8.769377
2023-05-02T05:20:31.691Z,8.769363
2023-05-02T05:21:31.706Z,8.769376
2023-05-02T05:22:31.688Z,8.769375
2023-05-02T05:23:31.674Z,8.769395
2023-05-02T05:24:31.633Z,8.769318
2023-05-02T05:25:31.634Z,8.769301
2023-05-02T05:26:31.673Z,8.769326
2023-05-02T05:27:31.643Z,8.769363
2023-05-02T05:28:31.612Z,8.769386
2023-05-02T05:29:31.614Z,8.769374
2023-05-02T05:30:31.597Z,8.769331
2023-05-02T05:31:31.730Z,8.769363
2023-05-02T05:32:31.620Z,8.769347
2023-05-02T05:33:31.609Z,8.769323
2023-05-02T05:34:31.633Z,8.769340
2023-05-02T05:35:31.564Z,8.769309
2023-05-02T05:36:31.597Z,8.769322
2023-05-02T05:37:31.560Z,8.769333
2023-05-02T05:38:31.539Z,8.769319
2023-05-02T05:39:31.552Z,8.769328
2023-05-02T05:40:31.516Z,8.769364
2023-05-02T05:41:31.517Z,8.769359
2023-05-02T05:42:31.575Z,8.769383
2023-05-02T05:43:31.505Z,8.769367
2023-05-02T05:44:31.534Z,8.769362
2023-05-02T05:45:31.499Z,8.769347
2023-05-02T05:46:31.499Z,8.769307
2023-05-02T05:47:31.662Z,8.769350
2023-05-02T05:48:31.493Z,8.769287
2023-05-02T05:49:31.474Z,8.769314
2023-05-02T05:50:31.437Z,8.769326
2023-05-02T05:51:31.444Z,8.769347
2023-05-02T05:52:31.479Z,8.769362
2023-05-02T05:53:31.432Z,8.769302
2023-05-02T05:54:31.464Z,8.769338
2023-05-02T05:55:31.421Z,8.769319
2023-05-02T05:56:31.415Z,8.769305
2023-05-02T05:57:31.444Z,8.769316
2023-05-02T05:58:31.430Z,8.769286
2023-05-02T05:59:31.397Z,8.769334
2023-05-02T06:00:31.391Z,8.769308
2023-05-02T06:01:31.392Z,8.769313
2023-05-02T06:02:31.401Z,8.769302
2023-05-02T06:03:31.454Z,8.769292
2023-05-02T06:04:31.403Z,8.769312
2023-05-02T06:05:31.345Z,8.769323
2023-05-02T06:06:31.398Z,8.769320
2023-05-02T06:07:31.327Z,8.769313
2023-05-02T06:08:31.358Z,8.769321
2023-05-02T06:09:31.301Z,8.769296
2023-05-02T06:10:31.325Z,8.769345
2023-05-02T06:11:31.313Z,8.769308
2023-05-02T06:12:31.284Z,8.769285
2023-05-02T06:13:31.293Z,8.769322
2023-05-02T06:14:31.300Z,8.769257
2023-05-02T06:15:31.292Z,8.769309
2023-05-02T06:16:31.383Z,8.769318
2023-05-02T06:17:31.351Z,8.769324
2023-05-02T06:18:31.240Z,8.769330
2023-05-02T06:19:31.280Z,8.769311
2023-05-02T06:20:31.233Z,8.769312
2023-05-02T06:21:31.239Z,8.769341
2023-05-02T06:22:31.235Z,8.769318
2023-05-02T06:23:31.201Z,8.769324
2023-05-02T06:24:31.225Z,8.769342
2023-05-02T06:25:31.224Z,8.769337
2023-05-02T06:26:31.187Z,8.769329
2023-05-02T06:27:33.458Z,8.769332
2023-05-02T06:28:31.175Z,8.769360
2023-05-02T06:29:31.172Z,8.769330
2023-05-02T06:30:31.192Z,8.769351
2023-05-02T06:31:31.216Z,8.769346
2023-05-02T06:32:31.167Z,8.769336
2023-05-02T06:33:31.128Z,8.769338
2023-05-02T06:34:31.144Z,8.769382
2023-05-02T06:35:31.129Z,8.769335
2023-05-02T06:36:31.167Z,8.769322
2023-05-02T06:37:31.131Z,8.769293
2023-05-02T06:38:31.131Z,8.769328
2023-05-02T06:39:31.122Z,8.769307
2023-05-02T06:40:31.129Z,8.769333
2023-05-02T06:41:31.095Z,8.769324
2023-05-02T06:42:31.111Z,8.769308
2023-05-02T06:43:31.053Z,8.769281
2023-05-02T06:44:31.062Z,8.769282
2023-05-02T06:45:31.041Z,8.769252
2023-05-02T06:46:31.055Z,8.769295
2023-05-02T06:47:31.035Z,8.769237
2023-05-02T06:48:31.062Z,8.769315
2023-05-02T06:49:31.006Z,8.769346
2023-05-02T06:50:30.999Z,8.769336
2023-05-02T06:51:30.997Z,8.769292
2023-05-02T06:52:30.979Z,8.769281
2023-05-02T06:53:32.918Z,8.769294
2023-05-02T06:54:31.042Z,8.769366
2023-05-02T06:55:30.979Z,8.769328
2023-05-02T06:56:30.999Z,8.769358
2023-05-02T06:57:30.965Z,8.769353
2023-05-02T06:58:30.993Z,8.769287
2023-05-02T06:59:30.981Z,8.769284
2023-05-02T07:00:30.958Z,8.769234
2023-05-02T07:01:31.040Z,8.769247
2023-05-02T07:02:30.933Z,8.769287
2023-05-02T07:03:30.946Z,8.769258
2023-05-02T07:04:30.952Z,8.769221
2023-05-02T07:05:31.304Z,8.769292
2023-05-02T07:06:30.942Z,8.769305
2023-05-02T07:07:30.869Z,8.769286
2023-05-02T07:08:30.874Z,8.769366
2023-05-02T07:09:30.886Z,8.769315
2023-05-02T07:10:30.877Z,8.769251
2023-05-02T07:11:30.914Z,8.769262
2023-05-02T07:12:30.860Z,8.769300
2023-05-02T07:13:30.824Z,8.769341
2023-05-02T07:14:30.852Z,8.769422
2023-05-02T07:15:30.847Z,8.769327
2023-05-02T07:16:30.940Z,8.769347
2023-05-02T07:17:30.884Z,8.769327
2023-05-02T07:18:30.798Z,8.769323
2023-05-02T07:19:30.778Z,8.769328
2023-05-02T07:20:30.788Z,8.769332
2023-05-02T07:21:30.777Z,8.769320
2023-05-02T07:22:30.815Z,8.769358
2023-05-02T07:23:30.746Z,8.769340
2023-05-02T07:24:30.783Z,8.769352
2023-05-02T07:25:30.756Z,8.769346
2023-05-02T07:26:30.838Z,8.769326
2023-05-02T07:27:30.758Z,8.769285
2023-05-02T07:28:30.768Z,8.769279
2023-05-02T07:29:30.754Z,8.769313
2023-05-02T07:30:30.705Z,8.769374
2023-05-02T07:31:30.740Z,8.769320
2023-05-02T07:32:30.934Z,8.769345
2023-05-02T07:33:30.685Z,8.769322
2023-05-02T07:34:30.726Z,8.769300
2023-05-02T07:35:30.661Z,8.769307
2023-05-02T07:36:30.666Z,8.769282
2023-05-02T07:37:32.006Z,8.769258
2023-05-02T07:38:30.646Z,8.769285
2023-05-02T07:39:30.670Z,8.769291
2023-05-02T07:40:30.631Z,8.769305
2023-05-02T07:41:30.652Z,8.769287
2023-05-02T07:42:30.629Z,8.769345
2023-05-02T07:43:30.692Z,8.769330
2023-05-02T07:44:30.664Z,8.769336
2023-05-02T07:45:30.625Z,8.769362
2023-05-02T07:46:30.648Z,8.769348
2023-05-02T07:47:30.636Z,8.769291
2023-05-02T07:48:30.581Z,8.769285
2023-05-02T07:49:30.635Z,8.769306
2023-05-02T07:50:30.592Z,8.769250
2023-05-02T07:51:30.561Z,8.769277
2023-05-02T07:52:30.594Z,8.769288
2023-05-02T07:53:30.539Z,8.769261
2023-05-02T07:54:30.587Z,8.769255
2023-05-02T07:55:30.524Z,8.769258
2023-05-02T07:56:30.537Z,8.769244
2023-05-02T07:57:30.513Z,8.769260
2023-05-02T07:58:30.524Z,8.769292
2023-05-02T07:59:30.570Z,8.769199
2023-05-02T08:00:30.506Z,8.769171
2023-05-02T08:01:30.510Z,8.769153
2023-05-02T08:02:30.604Z,8.769230
2023-05-02T08:03:30.563Z,8.769261
2023-05-02T08:04:30.563Z,8.769259
2023-05-02T08:05:30.484Z,8.769233
2023-05-02T08:06:30.476Z,8.769237
2023-05-02T08:07:30.444Z,8.769273
2023-05-02T08:08:30.419Z,8.769246
2023-05-02T08:09:30.440Z,8.769203
2023-05-02T08:10:30.840Z,8.769253
2023-05-02T08:11:30.422Z,8.769263
2023-05-02T08:12:30.422Z,8.769250
2023-05-02T08:13:30.461Z,8.769262
2023-05-02T08:14:30.393Z,8.769244
2023-05-02T08:15:30.396Z,8.769250
2023-05-02T08:16:30.430Z,8.769308
2023-05-02T08:17:30.399Z,8.769254
2023-05-02T08:18:30.389Z,8.769320
2023-05-02T08:19:30.355Z,8.769318
2023-05-02T08:20:30.354Z,8.769258
2023-05-02T08:21:30.357Z,8.769271
2023-05-02T08:22:30.390Z,8.769235
2023-05-02T08:23:30.326Z,8.769226
2023-05-02T08:24:30.303Z,8.769261
2023-05-02T08:25:30.312Z,8.769344
2023-05-02T08:26:30.323Z,8.769354
2023-05-02T08:27:30.332Z,8.769309
2023-05-02T08:28:30.314Z,8.769311
2023-05-02T08:29:30.339Z,8.769349
2023-05-02T08:30:30.299Z,8.769390
2023-05-02T08:31:30.332Z,8.769294
2023-05-02T08:32:30.350Z,8.769341
2023-05-02T08:33:30.264Z,8.769336
2023-05-02T08:34:30.253Z,8.769298
2023-05-02T08:35:30.436Z,8.769288
2023-05-02T08:36:30.231Z,8.769217
2023-05-02T08:37:30.275Z,8.769186
2023-05-02T08:38:30.232Z,8.769201
2023-05-02T08:39:30.217Z,8.769202
2023-05-02T08:40:40.816Z,8.769238
2023-05-02T08:41:31.213Z,8.769152
2023-05-02T08:42:30.221Z,8.769263
2023-05-02T08:43:30.206Z,8.769385
2023-05-02T08:44:30.177Z,8.769329
2023-05-02T08:45:30.155Z,8.769363
2023-05-02T08:46:30.160Z,8.769314
2023-05-02T08:47:30.181Z,8.769289
2023-05-02T08:48:30.152Z,8.769251
2023-05-02T08:49:30.191Z,8.769279
2023-05-02T08:50:30.119Z,8.769345
2023-05-02T08:51:30.121Z,8.769252
2023-05-02T08:52:30.118Z,8.769315
2023-05-02T08:53:30.117Z,8.769213
2023-05-02T08:54:30.131Z,8.769218
2023-05-02T08:55:30.095Z,8.769216
2023-05-02T08:56:30.124Z,8.769225
2023-05-02T08:57:30.075Z,8.769225
2023-05-02T08:58:30.063Z,8.769246
2023-05-02T08:59:30.104Z,8.769239
2023-05-02T09:00:30.065Z,8.769242
2023-05-02T09:01:30.102Z,8.769156
2023-05-02T09:02:30.033Z,8.769195
2023-05-02T09:03:30.017Z,8.769207
2023-05-02T09:04:30.182Z,8.769258
2023-05-02T09:05:30.016Z,8.769300
2023-05-02T09:06:30.225Z,8.769304
2023-05-02T09:07:30.007Z,8.769289
2023-05-02T09:08:29.991Z,8.769287
2023-05-02T09:09:30.010Z,8.769277
2023-05-02T09:10:29.969Z,8.769279
2023-05-02T09:11:30.019Z,8.769233
2023-05-02T09:12:29.956Z,8.769243
2023-05-02T09:13:29.971Z,8.769235
2023-05-02T09:14:30.001Z,8.769261
2023-05-02T09:15:30.174Z,8.769249
2023-05-02T09:16:29.966Z,8.769239
2023-05-02T09:17:29.945Z,8.769289
2023-05-02T09:18:29.930Z,8.769271
2023-05-02T09:19:29.906Z,8.769278
2023-05-02T09:20:29.921Z,8.769277
2023-05-02T09:21:30.006Z,8.769260
2023-05-02T09:22:29.897Z,8.769266
2023-05-02T09:23:29.946Z,8.769263
2023-05-02T09:24:29.909Z,8.769232
2023-05-02T09:25:29.875Z,8.769225
2023-05-02T09:26:31.612Z,8.769281
2023-05-02T09:27:29.897Z,8.769226
2023-05-02T09:28:29.860Z,8.769217
2023-05-02T09:29:29.888Z,8.769269
2023-05-02T09:30:29.860Z,8.769245
2023-05-02T09:31:49.724Z,8.769303
2023-05-02T09:32:30.942Z,8.769329
2023-05-02T09:33:29.826Z,8.769270
2023-05-02T09:34:29.879Z,8.769202
2023-05-02T09:35:29.821Z,8.769200
2023-05-02T09:36:29.802Z,8.769212
2023-05-02T09:37:29.839Z,8.769248
2023-05-02T09:38:29.830Z,8.769285
2023-05-02T09:39:29.780Z,8.769206
2023-05-02T09:40:29.789Z,8.769210
2023-05-02T09:41:29.737Z,8.769255
2023-05-02T09:42:29.803Z,8.769331
2023-05-02T09:43:29.767Z,8.769258
2023-05-02T09:44:29.720Z,8.769198
2023-05-02T09:45:29.720Z,8.769243
2023-05-02T09:46:29.831Z,8.769297
2023-05-02T09:47:29.830Z,8.769250
2023-05-02T09:48:29.720Z,8.769272
2023-05-02T09:49:29.743Z,8.769169
2023-05-02T09:50:29.698Z,8.769127
2023-05-02T09:51:29.701Z,8.769227
2023-05-02T09:52:29.717Z,8.769313
2023-05-02T09:53:29.692Z,8.769311
2023-05-02T09:54:29.687Z,8.769303
2023-05-02T09:55:29.637Z,8.769282
2023-05-02T09:56:29.680Z,8.769266
2023-05-02T09:57:29.781Z,8.769309
2023-05-02T09:58:29.763Z,8.769318
2023-05-02T09:59:29.652Z,8.769302
2023-05-02T10:00:29.659Z,8.769290
2023-05-02T10:01:29.708Z,8.769260
2023-05-02T10:02:29.700Z,8.769289
2023-05-02T10:03:29.632Z,8.769309
2023-05-02T10:04:29.645Z,8.769322
2023-05-02T10:05:30.143Z,8.769349
2023-05-02T10:06:29.645Z,8.769300
2023-05-02T10:07:29.574Z,8.769305
2023-05-02T10:08:29.621Z,8.769295
2023-05-02T10:09:29.588Z,8.769291
2023-05-02T10:10:29.560Z,8.769323
2023-05-02T10:11:29.562Z,8.769301
2023-05-02T10:12:29.560Z,8.769285
2023-05-02T10:13:29.581Z,8.769317
2023-05-02T10:14:29.817Z,8.769333
2023-05-02T10:15:29.532Z,8.769389
2023-05-02T10:16:29.545Z,8.769381
2023-05-02T10:17:29.616Z,8.769339
2023-05-02T10:18:29.543Z,8.769315
2023-05-02T10:19:29.496Z,8.769294
2023-05-02T10:20:29.500Z,8.769303
2023-05-02T10:21:29.464Z,8.769284
2023-05-02T10:22:29.484Z,8.769218
2023-05-02T10:23:29.515Z,8.769205
2023-05-02T10:24:29.460Z,8.769235
2023-05-02T10:25:29.476Z,8.769243
2023-05-02T10:26:29.467Z,8.769254
2023-05-02T10:27:29.441Z,8.769217
2023-05-02T10:28:29.485Z,8.769218
2023-05-02T10:29:29.463Z,8.769213
2023-05-02T10:30:29.453Z,8.769277
2023-05-02T10:31:29.454Z,8.769295
2023-05-02T10:32:29.662Z,8.769307
2023-05-02T10:33:29.421Z,8.769318
2023-05-02T10:34:29.450Z,8.769285
2023-05-02T10:35:29.460Z,8.769271
2023-05-02T10:36:29.438Z,8.769317
2023-05-02T10:37:29.361Z,8.769258
2023-05-02T10:38:29.439Z,8.769327
2023-05-02T10:39:29.350Z,8.769257
2023-05-02T10:40:29.338Z,8.769245
2023-05-02T10:41:29.363Z,8.769237
2023-05-02T10:42:29.332Z,8.769234
2023-05-02T10:43:29.392Z,8.769233
2023-05-02T10:44:29.304Z,8.769271
2023-05-02T10:45:29.277Z,8.769300
2023-05-02T10:46:29.346Z,8.769320
2023-05-02T10:47:29.289Z,8.769287
2023-05-02T10:48:29.309Z,8.769300
2023-05-02T10:49:29.315Z,8.769274
2023-05-02T10:50:29.277Z,8.769238
2023-05-02T10:51:29.285Z,8.769308
2023-05-02T10:52:30.320Z,8.769272
2023-05-02T10:53:29.285Z,8.769339
2023-05-02T10:54:29.232Z,8.769304
2023-05-02T10:55:29.241Z,8.769325
2023-05-02T10:56:29.396Z,8.769290
2023-05-02T10:57:29.180Z,8.769305
2023-05-02T10:58:29.263Z,8.769185
2023-05-02T10:59:29.229Z,8.769316
2023-05-02T11:00:29.155Z,8.769342
2023-05-02T11:01:29.464Z,8.769259
2023-05-02T11:02:29.332Z,8.769192
2023-05-02T11:03:29.219Z,8.769279
2023-05-02T11:04:29.172Z,8.769257
2023-05-02T11:05:29.182Z,8.769320
2023-05-02T11:06:29.209Z,8.769313
2023-05-02T11:07:29.147Z,8.769274
2023-05-02T11:08:29.117Z,8.769310
2023-05-02T11:09:29.167Z,8.769328
2023-05-02T11:10:29.179Z,8.769287
2023-05-02T11:11:29.100Z,8.769285
2023-05-02T11:12:29.096Z,8.769282
2023-05-02T11:13:29.157Z,8.769228
2023-05-02T11:14:29.105Z,8.769234
2023-05-02T11:15:29.156Z,8.769330
2023-05-02T11:16:29.095Z,8.769304
2023-05-02T11:17:29.167Z,8.769356
2023-05-02T11:18:29.075Z,8.769402
2023-05-02T11:19:31.034Z,8.769351
2023-05-02T11:20:29.086Z,8.769365
2023-05-02T11:21:29.315Z,8.769394
2023-05-02T11:22:31.054Z,8.769324
2023-05-02T11:23:28.998Z,8.769260
2023-05-02T11:24:29.024Z,8.769342
2023-05-02T11:26:29.019Z,8.769282
2023-05-02T11:27:29.255Z,8.769308
2023-05-02T11:28:29.001Z,8.769260
2023-05-02T11:29:28.958Z,8.769262
2023-05-02T11:30:28.956Z,8.769303
2023-05-02T11:31:28.971Z,8.769261
2023-05-02T11:32:28.992Z,8.769320
2023-05-02T11:33:29.007Z,8.769315
2023-05-02T11:34:28.912Z,8.769312
2023-05-02T11:35:28.912Z,8.769301
2023-05-02T11:36:28.899Z,8.769312
2023-05-02T11:37:29.889Z,8.769272
2023-05-02T11:38:28.921Z,8.769238
2023-05-02T11:39:28.906Z,8.769223
2023-05-02T11:40:28.906Z,8.769186
2023-05-02T11:41:28.878Z,8.769248
2023-05-02T11:42:28.913Z,8.769239
2023-05-02T11:43:31.257Z,8.769285
2023-05-02T11:44:28.837Z,8.769340
2023-05-02T11:45:28.848Z,8.769292